Pontos — WDC8486 — position and weather

sailwx.info

Track history (hours):
 
Tides and Currents Weather Stations Pressure Air Temp Water Temp Dewpoint Dewpoint Depression Visibility Wind Speed Wind Dir Waves Ship Positions

Pontos

More information available from US FCC via Universal Licensing System and Coast Guard Vessel Documentation Center.

Last reported at 2014-Aug-29 07:19 UTC. Time now 2014-Aug-29 08:02 UTC.
Position N 39°36' W 072°60'.

Length 31 m.

Type: Fishing. MMSI: 367087860.

Date/timePositionNaut miles runAvg speedWind from/ knotsBaromVisibWave heightAir tempDewpointWater temp
2014-Aug-29 07:19N 39°36' W 072°60'2 1.9
2014-Aug-29 06:24N 39°38' W 072°60'10 0.8
2014-Aug-28 18:12N 39°37' W 073°13'3 4.6
2014-Aug-28 17:32N 39°37' W 073°17'0 0.3
2014-Aug-28 16:16N 39°37' W 073°17'4 3.9
2014-Aug-28 15:17N 39°38' W 073°22'3 3.6
2014-Aug-28 14:21N 39°36' W 073°26'6 7.1
2014-Aug-28 13:31N 39°38' W 073°33'7 7.2
2014-Aug-28 12:33N 39°41' W 073°41'7 7.2
2014-Aug-28 11:31N 39°43' W 073°50'10 5.0
2014-Aug-28 09:27N 39°41' W 074°03'7 7.8
2014-Aug-28 08:30N 39°34' W 074°08'41 8.2
2014-Aug-28 03:33N 39°02' W 074°40'11 0.6
2014-Aug-27 10:33N 38°58' W 074°53'0 0.0
2014-Aug-27 08:27N 38°58' W 074°53'0 0.0
2014-Aug-27 07:32N 38°58' W 074°53'0 0.0
2014-Aug-27 05:32N 38°58' W 074°53'0 0.0
2014-Aug-27 04:32N 38°58' W 074°53'0 0.0
2014-Aug-27 03:29N 38°58' W 074°53'0 0.0
2014-Aug-27 02:23N 38°58' W 074°53'0 0.0
2014-Aug-27 01:32N 38°58' W 074°53'0 0.0
2014-Aug-27 00:32N 38°58' W 074°53'  
2014-Aug-21 11:14N 38°58' W 074°53'0 0.0
2014-Aug-21 09:29N 38°58' W 074°53'0 0.0
2014-Aug-21 03:29N 38°58' W 074°53'0 0.0
2014-Aug-21 02:29N 38°58' W 074°53'0 0.0
2014-Aug-21 01:32N 38°58' W 074°53'0 0.0
2014-Aug-21 00:32N 38°58' W 074°53'0 0.0
2014-Aug-20 23:11N 38°58' W 074°53'  
Track history (hours):
 
Tides and Currents Weather Stations Pressure Air Temp Water Temp Dewpoint Dewpoint Depression Visibility Wind Speed Wind Dir Waves Ship Positions

Pontos

More information available from US FCC via Universal Licensing System and Coast Guard Vessel Documentation Center.

Last reported at 2014-Aug-29 07:19 UTC. Time now 2014-Aug-29 08:02 UTC.
Position N 39°36' W 072°60'.

Length 31 m.

Type: Fishing. MMSI: 367087860.

Date/timePositionNaut miles runAvg speedWind from/ knotsBaromVisibWave heightAir tempDewpointWater temp
2014-Aug-29 07:19N 39°36' W 072°60'2 1.9
2014-Aug-29 06:24N 39°38' W 072°60'10 0.8
2014-Aug-28 18:12N 39°37' W 073°13'3 4.6
2014-Aug-28 17:32N 39°37' W 073°17'0 0.3
2014-Aug-28 16:16N 39°37' W 073°17'4 3.9
2014-Aug-28 15:17N 39°38' W 073°22'3 3.6
2014-Aug-28 14:21N 39°36' W 073°26'6 7.1
2014-Aug-28 13:31N 39°38' W 073°33'7 7.2
2014-Aug-28 12:33N 39°41' W 073°41'7 7.2
2014-Aug-28 11:31N 39°43' W 073°50'10 5.0
2014-Aug-28 09:27N 39°41' W 074°03'7 7.8
2014-Aug-28 08:30N 39°34' W 074°08'41 8.2
2014-Aug-28 03:33N 39°02' W 074°40'11 0.6
2014-Aug-27 10:33N 38°58' W 074°53'0 0.0
2014-Aug-27 08:27N 38°58' W 074°53'0 0.0
2014-Aug-27 07:32N 38°58' W 074°53'0 0.0
2014-Aug-27 05:32N 38°58' W 074°53'0 0.0
2014-Aug-27 04:32N 38°58' W 074°53'0 0.0
2014-Aug-27 03:29N 38°58' W 074°53'0 0.0
2014-Aug-27 02:23N 38°58' W 074°53'0 0.0
2014-Aug-27 01:32N 38°58' W 074°53'0 0.0
2014-Aug-27 00:32N 38°58' W 074°53'  
2014-Aug-21 11:14N 38°58' W 074°53'0 0.0
2014-Aug-21 09:29N 38°58' W 074°53'0 0.0
2014-Aug-21 03:29N 38°58' W 074°53'0 0.0
2014-Aug-21 02:29N 38°58' W 074°53'0 0.0
2014-Aug-21 01:32N 38°58' W 074°53'0 0.0
2014-Aug-21 00:32N 38°58' W 074°53'0 0.0
2014-Aug-20 23:11N 38°58' W 074°53'  

Dump ship's entire track history